createdAt,value
2018-07-02T00:00:30.704Z,53.14
2018-07-02T00:03:00.038Z,52.39
2018-07-02T00:05:46.408Z,53.84
2018-07-02T00:08:15.769Z,53.53
2018-07-02T00:10:45.147Z,52.61
2018-07-02T00:13:14.516Z,53.03
2018-07-02T00:15:43.888Z,53.16
2018-07-02T00:18:13.285Z,54.16
2018-07-02T00:20:42.639Z,52.90
2018-07-02T00:23:12.016Z,53.26
2018-07-02T00:25:41.424Z,52.07
2018-07-02T00:28:11.075Z,52.81
2018-07-02T00:30:40.442Z,54.29
2018-07-02T00:33:09.783Z,53.52
2018-07-02T00:35:39.168Z,53.33
2018-07-02T00:38:08.931Z,52.69
2018-07-02T00:40:38.292Z,52.28
2018-07-02T00:43:07.761Z,52.83
2018-07-02T00:45:37.577Z,53.43
2018-07-02T00:48:06.965Z,54.33
2018-07-02T00:50:36.415Z,53.26
2018-07-02T00:53:06.669Z,54.68
2018-07-02T00:55:36.025Z,54.97
2018-07-02T00:58:05.390Z,54.89
2018-07-02T01:00:34.798Z,54.47
2018-07-02T01:03:04.226Z,54.97
2018-07-02T01:05:33.610Z,53.89
2018-07-02T01:08:03.033Z,55.65
2018-07-02T01:10:32.437Z,55.23
2018-07-02T01:13:01.828Z,56.09
2018-07-02T01:15:31.178Z,55.91
2018-07-02T01:18:00.557Z,54.47
2018-07-02T01:20:29.951Z,56.14
2018-07-02T01:22:59.294Z,55.24
2018-07-02T01:25:28.697Z,56.44
2018-07-02T01:27:58.026Z,56.08
2018-07-02T01:30:27.380Z,56.32
2018-07-02T01:32:56.805Z,57.71
2018-07-02T01:35:26.147Z,57.28
2018-07-02T01:37:55.480Z,57.71
2018-07-02T01:40:24.849Z,57.76
2018-07-02T01:42:54.237Z,57.48
2018-07-02T01:45:23.577Z,58.11
2018-07-02T01:47:52.941Z,58.33
2018-07-02T01:50:22.315Z,58.09
2018-07-02T01:52:51.981Z,57.64
2018-07-02T01:55:21.354Z,57.82
2018-07-02T01:57:50.770Z,58.90
2018-07-02T02:00:20.198Z,58.44
2018-07-02T02:02:49.648Z,58.62
2018-07-02T02:05:19.095Z,58.33
2018-07-02T02:07:48.530Z,58.23
2018-07-02T02:10:18.000Z,58.14
2018-07-02T02:12:47.461Z,58.30
2018-07-02T02:15:17.276Z,57.85
2018-07-02T02:17:46.751Z,59.88
2018-07-02T02:20:16.488Z,58.91
2018-07-02T02:22:45.923Z,59.04
2018-07-02T02:25:15.301Z,59.88
2018-07-02T02:27:44.735Z,60.01
2018-07-02T02:30:14.101Z,59.66
2018-07-02T02:32:43.514Z,59.34
2018-07-02T02:35:12.874Z,60.43
2018-07-02T02:37:42.215Z,60.38
2018-07-02T02:40:18.239Z,60.35
2018-07-02T02:42:48.254Z,60.04
2018-07-02T02:45:17.790Z,60.49
2018-07-02T02:47:47.210Z,59.82
2018-07-02T02:50:16.760Z,60.90
2018-07-02T02:52:46.429Z,60.91
2018-07-02T02:55:15.863Z,60.84
2018-07-02T02:57:45.215Z,61.08
2018-07-02T03:00:14.295Z,61.34
2018-07-02T03:02:43.819Z,61.29
2018-07-02T03:05:13.205Z,60.95
2018-07-02T03:07:42.527Z,61.41
2018-07-02T03:10:11.912Z,61.31
2018-07-02T03:12:41.285Z,61.59
2018-07-02T03:15:10.690Z,61.37
2018-07-02T03:17:40.060Z,61.16
2018-07-02T03:20:09.655Z,59.86
2018-07-02T03:22:39.008Z,59.94
2018-07-02T03:25:08.329Z,61.46
2018-07-02T03:27:37.670Z,61.10
2018-07-02T03:30:07.180Z,61.82
2018-07-02T03:32:36.551Z,61.23
2018-07-02T03:35:05.941Z,61.88
2018-07-02T03:37:35.294Z,62.21
2018-07-02T03:40:04.667Z,61.77
2018-07-02T03:42:34.021Z,62.29
2018-07-02T03:45:03.394Z,61.95
2018-07-02T03:47:32.751Z,60.89
2018-07-02T03:50:02.062Z,61.61
2018-07-02T03:52:31.402Z,61.89
2018-07-02T03:55:00.734Z,61.12
2018-07-02T03:57:30.102Z,62.11
2018-07-02T03:59:59.429Z,61.95
2018-07-02T04:02:28.917Z,62.40
2018-07-02T04:04:58.343Z,62.83
2018-07-02T04:07:27.709Z,62.07
2018-07-02T04:09:57.058Z,61.18
2018-07-02T04:12:26.400Z,62.40
2018-07-02T04:14:55.729Z,62.68
2018-07-02T04:17:25.045Z,62.84
2018-07-02T04:19:54.390Z,62.52
2018-07-02T04:22:23.728Z,62.48
2018-07-02T04:24:53.137Z,60.92
2018-07-02T04:27:22.496Z,60.81
2018-07-02T04:29:52.265Z,60.64
2018-07-02T04:32:21.625Z,60.07
2018-07-02T04:34:51.109Z,60.55
2018-07-02T04:37:20.429Z,60.73
2018-07-02T04:39:49.798Z,61.13
2018-07-02T04:42:19.190Z,60.65
2018-07-02T04:44:48.633Z,60.45
2018-07-02T04:47:18.057Z,60.64
2018-07-02T04:49:47.441Z,57.92
2018-07-02T04:52:16.839Z,59.03
2018-07-02T04:54:46.290Z,58.40
2018-07-02T04:57:16.041Z,58.66
2018-07-02T04:59:45.424Z,58.54
2018-07-02T05:02:14.778Z,57.48
2018-07-02T05:04:44.173Z,59.78
2018-07-02T05:07:13.598Z,57.72
2018-07-02T05:09:42.933Z,58.87
2018-07-02T05:12:12.356Z,57.30
2018-07-02T05:14:42.660Z,57.59
2018-07-02T05:17:13.277Z,57.90
2018-07-02T05:19:42.694Z,58.27
2018-07-02T05:22:12.104Z,57.66
2018-07-02T05:24:41.479Z,56.66
2018-07-02T05:27:10.873Z,57.37
2018-07-02T05:29:40.301Z,58.79
2018-07-02T05:32:09.674Z,58.82
2018-07-02T05:34:39.059Z,57.15
2018-07-02T05:37:08.474Z,56.85
2018-07-02T05:39:37.927Z,55.37
2018-07-02T05:42:07.312Z,55.42
2018-07-02T05:44:37.353Z,57.30
2018-07-02T05:47:07.013Z,54.91
2018-07-02T05:49:36.402Z,55.47
2018-07-02T05:52:05.794Z,55.07
2018-07-02T05:54:35.180Z,55.72
2018-07-02T05:57:04.500Z,54.72
2018-07-02T05:59:34.066Z,54.38
2018-07-02T06:02:03.422Z,55.43
2018-07-02T06:04:32.750Z,55.17
2018-07-02T06:07:02.233Z,56.22
2018-07-02T06:09:31.639Z,56.79
2018-07-02T06:12:01.013Z,56.13
2018-07-02T06:14:30.351Z,56.35
2018-07-02T06:16:59.682Z,56.32
2018-07-02T06:19:29.093Z,55.45
2018-07-02T06:21:58.397Z,55.73
2018-07-02T06:24:27.792Z,55.11
2018-07-02T06:26:57.217Z,55.72
2018-07-02T06:29:26.673Z,55.96
2018-07-02T06:31:56.092Z,56.17
2018-07-02T06:34:25.475Z,55.90
2018-07-02T06:36:54.902Z,55.71
2018-07-02T06:39:24.238Z,54.44
2018-07-02T06:41:53.565Z,54.90
2018-07-02T06:44:22.884Z,54.62
2018-07-02T06:46:52.279Z,53.64
2018-07-02T06:49:21.633Z,55.79
2018-07-02T06:51:51.018Z,56.97
2018-07-02T06:54:20.421Z,56.47
2018-07-02T06:56:50.212Z,56.72
2018-07-02T06:59:19.926Z,57.48
2018-07-02T07:01:49.740Z,55.75
2018-07-02T07:04:19.117Z,55.04
2018-07-02T07:06:48.724Z,54.77
2018-07-02T07:09:18.114Z,54.17
2018-07-02T07:11:47.517Z,55.91
2018-07-02T07:14:16.961Z,53.36
2018-07-02T07:16:46.433Z,53.30
2018-07-02T07:19:15.669Z,51.52
2018-07-02T07:21:45.138Z,51.96
2018-07-02T07:24:14.569Z,50.92
2018-07-02T07:26:43.948Z,52.32
2018-07-02T07:29:13.375Z,53.77
2018-07-02T07:31:42.766Z,53.14
2018-07-02T07:34:12.149Z,50.59
2018-07-02T07:36:41.489Z,51.20
2018-07-02T07:39:11.900Z,50.19
2018-07-02T07:41:41.381Z,49.88
2018-07-02T07:44:10.748Z,51.06
2018-07-02T07:46:40.249Z,52.51
2018-07-02T07:49:09.617Z,49.15
2018-07-02T07:51:38.981Z,50.94
2018-07-02T07:54:08.590Z,48.11
2018-07-02T07:56:38.008Z,46.66
2018-07-02T07:59:07.407Z,47.70
2018-07-02T08:01:36.916Z,49.16
2018-07-02T08:04:06.322Z,48.39
2018-07-02T08:06:35.749Z,48.32
2018-07-02T08:09:07.996Z,47.45
2018-07-02T08:11:37.838Z,46.84
2018-07-02T08:14:07.283Z,49.24
2018-07-02T08:16:36.763Z,47.58
2018-07-02T08:19:06.251Z,46.81
2018-07-02T08:21:35.637Z,49.43
2018-07-02T08:24:05.030Z,46.22
2018-07-02T08:26:34.370Z,46.03
2018-07-02T08:29:03.857Z,45.91
2018-07-02T08:31:33.256Z,45.17
2018-07-02T08:34:02.615Z,44.05
2018-07-02T08:36:31.985Z,43.77
2018-07-02T08:39:02.370Z,43.38
2018-07-02T08:41:31.897Z,42.02
2018-07-02T08:44:02.064Z,45.90
2018-07-02T08:46:31.511Z,46.36
2018-07-02T08:49:00.883Z,42.02
2018-07-02T08:51:30.709Z,39.28
2018-07-02T08:54:00.270Z,43.26
2018-07-02T08:56:29.609Z,43.73
2018-07-02T08:58:58.957Z,41.69
2018-07-02T09:01:28.645Z,44.07
2018-07-02T09:03:58.190Z,43.02
2018-07-02T09:06:27.532Z,43.10
2018-07-02T09:08:56.930Z,42.19
2018-07-02T09:11:26.335Z,42.57
2018-07-02T09:13:55.715Z,42.94
2018-07-02T09:16:25.130Z,42.12
2018-07-02T09:18:54.471Z,43.48
2018-07-02T09:21:23.937Z,43.15
2018-07-02T09:23:53.383Z,43.39
2018-07-02T09:26:22.709Z,42.77
2018-07-02T09:28:52.074Z,41.44
2018-07-02T09:31:21.489Z,37.18
2018-07-02T09:33:50.871Z,39.79
2018-07-02T09:36:20.353Z,40.53
2018-07-02T09:38:49.792Z,40.09
2018-07-02T09:41:19.159Z,43.15
2018-07-02T09:43:48.591Z,42.60
2018-07-02T09:46:18.091Z,44.34
2018-07-02T09:48:47.521Z,45.14
2018-07-02T09:51:19.911Z,43.68
2018-07-02T09:53:49.320Z,42.04
2018-07-02T09:56:18.757Z,43.28
2018-07-02T09:58:48.233Z,41.88
2018-07-02T10:01:17.807Z,41.44
2018-07-02T10:03:47.270Z,42.20
2018-07-02T10:06:17.287Z,38.40
2018-07-02T10:08:46.696Z,38.98
2018-07-02T10:11:16.186Z,40.75
2018-07-02T10:13:45.594Z,41.54
2018-07-02T10:16:15.025Z,43.14
2018-07-02T10:18:44.501Z,44.15
2018-07-02T10:21:13.874Z,42.30
2018-07-02T10:23:43.395Z,44.40
2018-07-02T10:26:12.712Z,43.16
2018-07-02T10:28:42.021Z,38.58
2018-07-02T10:31:11.538Z,43.62
2018-07-02T10:33:40.856Z,45.27
2018-07-02T10:36:10.230Z,41.30
2018-07-02T10:38:39.649Z,40.68
2018-07-02T10:41:09.019Z,40.75
2018-07-02T10:43:38.405Z,39.74
2018-07-02T10:46:08.295Z,41.34
2018-07-02T10:48:37.717Z,37.66
2018-07-02T10:51:07.160Z,42.13
2018-07-02T10:53:36.543Z,40.68
2018-07-02T10:56:05.962Z,42.25
2018-07-02T10:58:35.309Z,41.81
2018-07-02T11:01:04.927Z,37.98
2018-07-02T11:03:34.327Z,41.94
2018-07-02T11:06:03.684Z,39.23
2018-07-02T11:08:33.058Z,41.73
2018-07-02T11:11:02.495Z,39.35
2018-07-02T11:13:31.940Z,39.16
2018-07-02T11:16:02.048Z,42.27
2018-07-02T11:18:31.547Z,37.32
2018-07-02T11:21:00.882Z,40.10
2018-07-02T11:23:30.216Z,38.68
2018-07-02T11:25:59.536Z,40.81
2018-07-02T11:28:28.986Z,40.51
2018-07-02T11:30:58.308Z,39.66
2018-07-02T11:33:27.658Z,37.93
2018-07-02T11:35:57.097Z,38.92
2018-07-02T11:38:26.567Z,38.70
2018-07-02T11:40:56.189Z,40.54
2018-07-02T11:43:25.559Z,39.28
2018-07-02T11:45:54.909Z,39.66
2018-07-02T11:48:24.335Z,37.10
2018-07-02T11:50:53.732Z,40.39
2018-07-02T11:53:23.243Z,39.53
2018-07-02T11:55:52.646Z,37.91
2018-07-02T11:58:22.017Z,37.29
2018-07-02T12:00:51.389Z,41.15
2018-07-02T12:03:20.734Z,37.46
2018-07-02T12:05:50.118Z,39.59
2018-07-02T12:08:19.504Z,35.82
2018-07-02T12:10:48.956Z,39.59
2018-07-02T12:13:18.395Z,36.12
2018-07-02T12:15:47.845Z,37.88
2018-07-02T12:18:16.962Z,39.56
2018-07-02T12:20:46.408Z,39.70
2018-07-02T12:23:16.015Z,39.00
2018-07-02T12:25:45.560Z,36.73
2018-07-02T12:28:15.045Z,37.54
2018-07-02T12:30:44.678Z,39.07
2018-07-02T12:33:14.156Z,36.57
2018-07-02T12:35:44.026Z,38.58
2018-07-02T12:38:14.105Z,37.06
2018-07-02T12:40:43.878Z,37.77
2018-07-02T12:43:13.340Z,35.08
2018-07-02T12:45:42.738Z,35.59
2018-07-02T12:48:12.253Z,38.09
2018-07-02T12:50:41.710Z,36.91
2018-07-02T12:53:11.092Z,35.27
2018-07-02T12:55:40.665Z,36.50
2018-07-02T12:58:10.857Z,37.27
2018-07-02T13:00:40.238Z,36.09
2018-07-02T13:03:09.720Z,35.49
2018-07-02T13:05:39.088Z,36.96
2018-07-02T13:08:08.553Z,38.07
2018-07-02T13:10:38.266Z,36.55
2018-07-02T13:13:07.619Z,35.11
2018-07-02T13:15:36.995Z,38.79
2018-07-02T13:18:06.999Z,37.99
2018-07-02T13:20:36.449Z,36.88
2018-07-02T13:23:05.766Z,37.89
2018-07-02T13:25:35.155Z,38.00
2018-07-02T13:28:04.630Z,36.49
2018-07-02T13:30:34.172Z,35.86
2018-07-02T13:33:03.650Z,36.41
2018-07-02T13:35:33.040Z,35.07
2018-07-02T13:38:02.407Z,34.72
2018-07-02T13:40:31.765Z,34.83
2018-07-02T13:43:01.202Z,36.24
2018-07-02T13:45:30.635Z,35.86
2018-07-02T13:48:00.519Z,34.01
2018-07-02T13:50:29.925Z,33.11
2018-07-02T13:52:59.442Z,34.11
2018-07-02T13:55:28.884Z,36.31
2018-07-02T13:57:58.346Z,36.71
2018-07-02T14:00:27.762Z,36.85
2018-07-02T14:02:57.141Z,37.87
2018-07-02T14:05:26.559Z,34.75
2018-07-02T14:07:55.985Z,37.36
2018-07-02T14:10:25.384Z,35.87
2018-07-02T14:12:54.749Z,37.28
2018-07-02T14:15:24.130Z,36.47
2018-07-02T14:17:53.729Z,37.26
2018-07-02T14:20:23.076Z,37.27
2018-07-02T14:22:52.441Z,36.08
2018-07-02T14:25:21.844Z,37.87
2018-07-02T14:27:51.301Z,37.28
2018-07-02T14:30:20.666Z,36.54
2018-07-02T14:32:50.091Z,36.36
2018-07-02T14:35:19.450Z,37.17
2018-07-02T14:37:48.813Z,35.78
2018-07-02T14:40:18.291Z,38.61
2018-07-02T14:42:47.795Z,37.27
2018-07-02T14:45:17.591Z,33.88
2018-07-02T14:47:46.796Z,33.78
2018-07-02T14:50:16.327Z,36.33
2018-07-02T14:52:45.770Z,35.37
2018-07-02T14:55:15.180Z,34.77
2018-07-02T14:57:44.546Z,34.89
2018-07-02T15:00:14.611Z,35.12
2018-07-02T15:02:43.978Z,33.63
2018-07-02T15:05:14.041Z,34.46
2018-07-02T15:07:43.450Z,35.99
2018-07-02T15:10:12.871Z,35.43
2018-07-02T15:12:42.293Z,32.96
2018-07-02T15:15:11.695Z,34.69
2018-07-02T15:17:41.096Z,35.23
2018-07-02T15:20:10.513Z,33.48
2018-07-02T15:22:39.983Z,34.57
2018-07-02T15:25:09.355Z,34.72
2018-07-02T15:27:38.733Z,35.97
2018-07-02T15:30:08.113Z,37.05
2018-07-02T15:32:37.482Z,34.06
2018-07-02T15:35:06.973Z,33.94
2018-07-02T15:37:36.350Z,33.47
2018-07-02T15:40:05.841Z,34.40
2018-07-02T15:42:35.409Z,33.41
2018-07-02T15:45:05.119Z,33.92
2018-07-02T15:47:34.518Z,34.79
2018-07-02T15:50:04.003Z,35.25
2018-07-02T15:52:33.685Z,34.85
2018-07-02T15:55:03.225Z,35.21
2018-07-02T15:57:32.595Z,35.66
2018-07-02T16:00:02.119Z,35.35
2018-07-02T16:02:31.393Z,36.23
2018-07-02T16:05:00.933Z,36.98
2018-07-02T16:07:30.512Z,36.73
2018-07-02T16:09:59.955Z,35.65
2018-07-02T16:12:29.503Z,36.38
2018-07-02T16:14:58.841Z,37.53
2018-07-02T16:17:28.242Z,37.38
2018-07-02T16:19:57.647Z,36.68
2018-07-02T16:22:27.038Z,37.58
2018-07-02T16:24:56.526Z,38.89
2018-07-02T16:27:25.864Z,39.29
2018-07-02T16:29:55.236Z,37.79
2018-07-02T16:32:24.677Z,37.23
2018-07-02T16:34:54.094Z,37.39
2018-07-02T16:37:23.558Z,35.61
2018-07-02T16:39:52.898Z,36.88
2018-07-02T16:42:22.245Z,36.63
2018-07-02T16:44:51.633Z,37.72
2018-07-02T16:47:22.055Z,36.78
2018-07-02T16:49:51.666Z,36.36
2018-07-02T16:52:21.017Z,36.47
2018-07-02T16:54:50.529Z,37.01
2018-07-02T16:57:19.958Z,37.66
2018-07-02T16:59:49.344Z,37.65
2018-07-02T17:02:18.821Z,37.53
2018-07-02T17:04:48.253Z,38.20
2018-07-02T17:07:17.652Z,37.87
2018-07-02T17:09:47.147Z,38.60
2018-07-02T17:12:16.500Z,38.05
2018-07-02T17:14:45.915Z,37.34
2018-07-02T17:17:15.382Z,37.43
2018-07-02T17:19:44.778Z,37.62
2018-07-02T17:22:14.205Z,37.95
2018-07-02T17:24:43.589Z,38.51
2018-07-02T17:27:13.041Z,39.14
2018-07-02T17:29:42.498Z,37.83
2018-07-02T17:32:12.224Z,36.62
2018-07-02T17:34:41.624Z,36.85
2018-07-02T17:37:11.038Z,37.12
2018-07-02T17:39:40.481Z,36.52
2018-07-02T17:42:09.813Z,36.86
2018-07-02T17:44:39.182Z,37.04
2018-07-02T17:47:08.590Z,37.34
2018-07-02T17:49:38.116Z,37.05
2018-07-02T17:52:07.490Z,36.79
2018-07-02T17:54:36.846Z,37.77
2018-07-02T17:57:06.505Z,37.58
2018-07-02T17:59:37.234Z,37.74
2018-07-02T18:02:06.609Z,37.55
2018-07-02T18:04:36.139Z,37.13
2018-07-02T18:07:05.705Z,37.60
2018-07-02T18:09:35.151Z,38.94
2018-07-02T18:12:04.611Z,38.33
2018-07-02T18:14:33.966Z,39.14
2018-07-02T18:17:03.321Z,39.53
2018-07-02T18:19:32.715Z,40.27
2018-07-02T18:22:02.121Z,39.72
2018-07-02T18:24:33.428Z,41.58
2018-07-02T18:27:02.901Z,40.70
2018-07-02T18:29:32.571Z,42.74
2018-07-02T18:32:01.998Z,40.99
2018-07-02T18:34:31.392Z,41.35
2018-07-02T18:37:01.393Z,42.54
2018-07-02T18:39:30.746Z,40.68
2018-07-02T18:42:00.110Z,40.29
2018-07-02T18:44:29.747Z,41.04
2018-07-02T18:46:59.111Z,43.13
2018-07-02T18:49:28.460Z,42.40
2018-07-02T18:51:58.102Z,43.76
2018-07-02T18:54:27.605Z,44.93
2018-07-02T18:56:56.989Z,45.91
2018-07-02T18:59:26.342Z,47.33
2018-07-02T19:01:55.726Z,45.88
2018-07-02T19:04:25.140Z,46.29
2018-07-02T19:06:54.440Z,45.84
2018-07-02T19:09:23.806Z,46.27
2018-07-02T19:11:53.256Z,47.50
2018-07-02T19:14:22.708Z,47.04
2018-07-02T19:16:52.115Z,47.71
2018-07-02T19:19:21.690Z,49.17
2018-07-02T19:21:51.127Z,47.79
2018-07-02T19:24:20.679Z,48.72
2018-07-02T19:26:50.169Z,49.15
2018-07-02T19:29:19.552Z,49.21
2018-07-02T19:31:48.899Z,50.19
2018-07-02T19:34:18.262Z,49.44
2018-07-02T19:36:47.713Z,49.60
2018-07-02T19:39:17.173Z,50.63
2018-07-02T19:41:46.590Z,49.44
2018-07-02T19:44:16.329Z,50.15
2018-07-02T19:46:45.675Z,48.90
2018-07-02T19:49:15.160Z,51.17
2018-07-02T19:51:44.690Z,51.37
2018-07-02T19:54:14.290Z,51.38
2018-07-02T19:56:43.721Z,50.93
2018-07-02T19:59:13.063Z,51.89
2018-07-02T20:01:43.179Z,51.68
2018-07-02T20:04:12.613Z,50.48
2018-07-02T20:06:41.992Z,50.42
2018-07-02T20:09:11.382Z,51.24
2018-07-02T20:11:41.327Z,51.19
2018-07-02T20:14:10.774Z,51.90
2018-07-02T20:16:40.155Z,50.34
2018-07-02T20:19:09.564Z,51.03
2018-07-02T20:21:38.949Z,52.16
2018-07-02T20:24:08.121Z,52.99
2018-07-02T20:26:37.506Z,52.03
2018-07-02T20:29:06.955Z,52.01
2018-07-02T20:31:36.512Z,51.97
2018-07-02T20:34:06.092Z,52.75
2018-07-02T20:36:35.492Z,50.37
2018-07-02T20:39:08.344Z,50.52
2018-07-02T20:41:37.750Z,52.76
2018-07-02T20:44:07.309Z,52.08
2018-07-02T20:46:36.894Z,52.48
2018-07-02T20:49:06.396Z,51.91
2018-07-02T20:51:35.760Z,52.34
2018-07-02T20:54:05.460Z,52.95
2018-07-02T20:56:35.342Z,52.67
2018-07-02T20:59:04.953Z,53.75
2018-07-02T21:01:34.950Z,53.97
2018-07-02T21:04:04.874Z,53.12
2018-07-02T21:06:34.325Z,53.04
2018-07-02T21:09:04.956Z,53.73
2018-07-02T21:11:36.349Z,53.62
2018-07-02T21:14:06.026Z,53.77
2018-07-02T21:16:35.727Z,54.49
2018-07-02T21:19:05.376Z,53.95
2018-07-02T21:24:18.449Z,53.10
2018-07-02T21:26:47.981Z,54.47
2018-07-02T21:29:17.418Z,54.25
2018-07-02T21:31:46.925Z,52.18
2018-07-02T21:34:17.660Z,51.04
2018-07-02T21:36:47.105Z,50.65
2018-07-02T21:39:16.536Z,51.68
2018-07-02T21:41:45.975Z,52.05
2018-07-02T21:44:15.641Z,52.31
2018-07-02T21:46:45.074Z,52.60
2018-07-02T21:49:14.441Z,53.22
2018-07-02T21:51:43.821Z,52.27
2018-07-02T21:54:13.285Z,52.44
2018-07-02T21:56:42.736Z,52.25
2018-07-02T21:59:12.080Z,53.35
2018-07-02T22:01:41.510Z,53.13
2018-07-02T22:04:10.969Z,53.84
2018-07-02T22:06:40.319Z,53.29
2018-07-02T22:09:10.657Z,53.16
2018-07-02T22:11:40.034Z,52.04
2018-07-02T22:14:09.423Z,53.77
2018-07-02T22:16:38.796Z,52.06
2018-07-02T22:19:08.194Z,52.06
2018-07-02T22:21:37.685Z,53.63
2018-07-02T22:24:07.165Z,53.65
2018-07-02T22:26:37.582Z,53.78
2018-07-02T22:29:07.117Z,53.13
2018-07-02T22:31:36.796Z,53.29
2018-07-02T22:34:06.196Z,53.35
2018-07-02T22:36:35.615Z,52.89
2018-07-02T22:39:08.175Z,51.99
2018-07-02T22:41:37.743Z,50.96
2018-07-02T22:44:08.372Z,52.73
2018-07-02T22:46:37.840Z,51.12
2018-07-02T22:49:07.601Z,52.79
2018-07-02T22:51:37.061Z,51.16
2018-07-02T22:54:06.550Z,52.48
2018-07-02T22:56:35.889Z,53.33
2018-07-02T22:59:05.377Z,53.46
2018-07-02T23:01:34.799Z,52.42
2018-07-02T23:04:04.114Z,52.04
2018-07-02T23:06:33.526Z,52.69
2018-07-02T23:09:02.875Z,53.11
2018-07-02T23:11:32.273Z,52.25
2018-07-02T23:14:01.650Z,53.93
2018-07-02T23:16:31.021Z,52.15
2018-07-02T23:19:00.411Z,51.19
2018-07-02T23:21:29.753Z,51.38
2018-07-02T23:23:59.089Z,50.78
2018-07-02T23:26:28.438Z,51.91
2018-07-02T23:28:57.762Z,51.22
2018-07-02T23:31:27.126Z,51.99
2018-07-02T23:33:56.465Z,51.50
2018-07-02T23:36:25.813Z,52.67
2018-07-02T23:38:55.214Z,53.52
2018-07-02T23:41:24.594Z,54.14
2018-07-02T23:43:54.049Z,52.42
2018-07-02T23:46:23.445Z,54.71
2018-07-02T23:48:54.337Z,53.51
2018-07-02T23:51:23.711Z,55.51
2018-07-02T23:53:53.079Z,55.79
2018-07-02T23:56:22.476Z,56.07
2018-07-02T23:58:51.857Z,55.96
